createdAt,value
2023-07-19T00:01:56.108Z,17.08
2023-07-19T00:04:28.474Z,17.04
2023-07-19T00:07:00.484Z,17.01
2023-07-19T00:09:32.693Z,16.97
2023-07-19T00:12:06.534Z,16.92
2023-07-19T00:14:38.854Z,16.87
2023-07-19T00:17:10.840Z,16.81
2023-07-19T00:19:43.189Z,16.77
2023-07-19T00:22:15.055Z,16.72
2023-07-19T00:24:47.348Z,16.69
2023-07-19T00:27:19.282Z,16.66
2023-07-19T00:29:51.438Z,16.63
2023-07-19T00:32:23.444Z,16.60
2023-07-19T00:34:55.410Z,16.56
2023-07-19T00:37:27.279Z,16.53
2023-07-19T00:39:59.958Z,16.49
2023-07-19T00:42:31.939Z,16.45
2023-07-19T00:45:04.448Z,16.39
2023-07-19T00:47:37.298Z,16.34
2023-07-19T00:50:10.934Z,16.30
2023-07-19T00:52:43.245Z,16.28
2023-07-19T00:55:15.736Z,16.26
2023-07-19T00:57:47.683Z,16.26
2023-07-19T01:00:21.038Z,16.24
2023-07-19T01:02:52.987Z,16.20
2023-07-19T01:05:25.558Z,16.17
2023-07-19T01:07:59.956Z,16.15
2023-07-19T01:10:32.576Z,16.11
2023-07-19T01:13:09.610Z,16.09
2023-07-19T01:15:42.533Z,16.07
2023-07-19T01:18:14.688Z,16.05
2023-07-19T01:20:47.052Z,16.04
2023-07-19T01:23:18.871Z,16.04
2023-07-19T01:25:50.837Z,16.03
2023-07-19T01:28:22.827Z,16.02
2023-07-19T01:30:55.107Z,16.02
2023-07-19T01:33:33.937Z,16.01
2023-07-19T01:36:07.183Z,16.00
2023-07-19T01:38:39.207Z,15.97
2023-07-19T01:41:11.302Z,15.96
2023-07-19T01:43:43.080Z,15.93
2023-07-19T01:46:15.378Z,15.90
2023-07-19T01:48:47.373Z,15.88
2023-07-19T01:51:19.688Z,15.85
2023-07-19T01:53:52.116Z,15.81
2023-07-19T01:56:24.237Z,15.78
2023-07-19T01:58:56.215Z,15.74
2023-07-19T02:01:28.425Z,15.69
2023-07-19T02:04:00.646Z,15.67
2023-07-19T02:06:32.719Z,15.64
2023-07-19T02:09:04.782Z,15.62
2023-07-19T02:11:37.156Z,15.61
2023-07-19T02:14:09.312Z,15.59
2023-07-19T02:16:41.596Z,15.57
2023-07-19T02:19:13.914Z,15.55
2023-07-19T02:21:46.178Z,15.53
2023-07-19T02:24:19.304Z,15.52
2023-07-19T02:26:51.759Z,15.48
2023-07-19T02:29:23.679Z,15.46
2023-07-19T02:31:56.622Z,15.43
2023-07-19T02:34:28.513Z,15.40
2023-07-19T02:37:00.655Z,15.38
2023-07-19T02:39:32.660Z,15.36
2023-07-19T02:42:05.474Z,15.34
2023-07-19T02:44:37.315Z,15.32
2023-07-19T02:47:09.645Z,15.29
2023-07-19T02:49:41.675Z,15.26
2023-07-19T02:52:13.850Z,15.23
2023-07-19T02:54:45.735Z,15.18
2023-07-19T02:57:18.156Z,15.14
2023-07-19T02:59:50.080Z,15.11
2023-07-19T03:02:25.268Z,15.08
2023-07-19T03:04:58.237Z,15.05
2023-07-19T03:07:32.203Z,15.01
2023-07-19T03:10:04.441Z,14.98
2023-07-19T03:12:36.666Z,14.95
2023-07-19T03:15:10.942Z,14.94
2023-07-19T03:17:43.260Z,14.92
2023-07-19T03:20:16.656Z,14.89
2023-07-19T03:22:48.773Z,14.87
2023-07-19T03:25:20.955Z,14.86
2023-07-19T03:27:54.800Z,14.87
2023-07-19T03:30:28.199Z,14.88
2023-07-19T03:33:00.848Z,14.89
2023-07-19T03:35:32.923Z,14.89
2023-07-19T03:38:05.281Z,14.91
2023-07-19T03:40:37.113Z,14.91
2023-07-19T03:43:09.238Z,14.92
2023-07-19T03:45:41.151Z,14.93
2023-07-19T03:48:13.497Z,14.94
2023-07-19T03:50:45.536Z,14.95
2023-07-19T03:53:17.866Z,14.97
2023-07-19T03:55:57.486Z,14.98
2023-07-19T03:58:30.849Z,15.02
2023-07-19T04:01:04.512Z,15.06
2023-07-19T04:03:36.747Z,15.10
2023-07-19T04:06:08.845Z,15.16
2023-07-19T04:08:40.798Z,15.22
2023-07-19T04:11:12.841Z,15.27
2023-07-19T04:13:44.702Z,15.34
2023-07-19T04:16:16.745Z,15.41
2023-07-19T04:18:48.932Z,15.48
2023-07-19T04:21:21.562Z,15.58
2023-07-19T04:23:54.220Z,15.68
2023-07-19T04:26:26.602Z,15.78
2023-07-19T04:28:59.547Z,15.90
2023-07-19T04:31:31.393Z,16.01
2023-07-19T04:34:03.812Z,16.14
2023-07-19T04:36:35.777Z,16.27
2023-07-19T04:39:07.945Z,16.40
2023-07-19T04:41:39.904Z,16.54
2023-07-19T04:44:12.186Z,16.68
2023-07-19T04:46:44.165Z,16.83
2023-07-19T04:49:16.944Z,16.98
2023-07-19T04:51:48.931Z,17.13
2023-07-19T04:54:21.053Z,17.28
2023-07-19T04:56:52.994Z,17.41
2023-07-19T04:59:25.285Z,17.55
2023-07-19T05:01:57.196Z,17.66
2023-07-19T05:04:29.817Z,17.78
2023-07-19T05:07:01.872Z,17.89
2023-07-19T05:09:34.401Z,17.99
2023-07-19T05:12:06.984Z,18.11
2023-07-19T05:14:39.157Z,18.21
2023-07-19T05:17:11.189Z,18.33
2023-07-19T05:19:43.560Z,18.44
2023-07-19T05:22:16.543Z,18.55
2023-07-19T05:24:48.678Z,18.63
2023-07-19T05:27:22.342Z,18.67
2023-07-19T05:29:54.648Z,18.74
2023-07-19T05:32:26.539Z,18.80
2023-07-19T05:35:00.054Z,18.86
2023-07-19T05:37:32.395Z,18.92
2023-07-19T05:40:06.285Z,18.97
2023-07-19T05:42:38.653Z,19.04
2023-07-19T05:45:12.391Z,19.12
2023-07-19T05:47:44.273Z,19.23
2023-07-19T05:50:16.676Z,19.30
2023-07-19T05:52:49.175Z,19.38
2023-07-19T05:55:21.375Z,19.46
2023-07-19T05:57:53.763Z,19.54
2023-07-19T06:00:29.878Z,19.63
2023-07-19T06:03:02.065Z,19.71
2023-07-19T06:05:34.427Z,19.81
2023-07-19T06:08:14.305Z,19.91
2023-07-19T06:10:54.913Z,20.00
2023-07-19T06:13:27.175Z,20.08
2023-07-19T06:15:59.449Z,20.16
2023-07-19T06:18:31.722Z,20.24
2023-07-19T06:21:04.144Z,20.32
2023-07-19T06:23:36.113Z,20.44
2023-07-19T06:26:08.651Z,20.53
2023-07-19T06:28:40.739Z,20.63
2023-07-19T06:31:13.109Z,20.72
2023-07-19T06:33:45.028Z,20.82
2023-07-19T06:36:17.121Z,20.92
2023-07-19T06:38:49.002Z,21.01
2023-07-19T06:41:21.350Z,21.09
2023-07-19T06:43:53.697Z,21.15
2023-07-19T06:46:25.803Z,21.21
2023-07-19T06:49:00.193Z,21.28
2023-07-19T06:51:32.642Z,21.35
2023-07-19T06:54:15.044Z,21.44
2023-07-19T06:56:47.917Z,21.50
2023-07-19T06:59:19.936Z,21.55
2023-07-19T07:01:52.239Z,21.61
2023-07-19T07:04:25.429Z,21.66
2023-07-19T07:06:57.702Z,21.74
2023-07-19T07:09:31.519Z,21.82
2023-07-19T07:12:03.809Z,21.89
2023-07-19T07:14:35.705Z,21.95
2023-07-19T07:17:10.800Z,22.01
2023-07-19T07:19:42.969Z,22.11
2023-07-19T07:22:15.327Z,22.21
2023-07-19T07:24:47.405Z,22.29
2023-07-19T07:27:19.399Z,22.39
2023-07-19T07:29:51.360Z,22.49
2023-07-19T07:32:23.297Z,22.59
2023-07-19T07:34:55.283Z,22.71
2023-07-19T07:37:27.864Z,22.81
2023-07-19T07:39:59.823Z,22.92
2023-07-19T07:42:31.978Z,23.03
2023-07-19T07:45:04.309Z,23.13
2023-07-19T07:47:36.420Z,23.22
2023-07-19T07:50:11.765Z,23.28
2023-07-19T07:52:50.038Z,23.37
2023-07-19T07:55:27.454Z,23.50
2023-07-19T07:58:00.504Z,23.58
2023-07-19T08:00:32.698Z,23.64
2023-07-19T08:03:05.141Z,23.72
2023-07-19T08:05:37.467Z,23.81
2023-07-19T08:08:10.158Z,23.92
2023-07-19T08:10:42.358Z,24.03
2023-07-19T08:13:14.489Z,24.12
2023-07-19T08:15:46.610Z,24.20
2023-07-19T08:18:18.813Z,24.29
2023-07-19T08:20:52.254Z,24.37
2023-07-19T08:23:25.665Z,24.40
2023-07-19T08:26:00.194Z,24.48
2023-07-19T08:28:32.373Z,24.56
2023-07-19T08:31:04.372Z,24.68
2023-07-19T08:33:36.317Z,24.83
2023-07-19T08:36:08.836Z,24.95
2023-07-19T08:38:41.165Z,25.11
2023-07-19T08:41:15.367Z,25.33
2023-07-19T08:43:48.394Z,25.56
2023-07-19T08:46:20.515Z,25.71
2023-07-19T08:48:52.628Z,25.80
2023-07-19T08:51:24.555Z,25.89
2023-07-19T08:53:57.146Z,25.92
2023-07-19T08:56:29.412Z,25.92
2023-07-19T08:59:01.457Z,25.95
2023-07-19T09:01:33.359Z,26.01
2023-07-19T09:04:11.648Z,26.06
2023-07-19T09:06:46.598Z,26.15
2023-07-19T09:09:20.740Z,26.26
2023-07-19T09:11:52.726Z,26.24
2023-07-19T09:14:37.104Z,26.21
2023-07-19T09:17:09.422Z,26.18
2023-07-19T09:19:45.816Z,26.12
2023-07-19T09:22:19.849Z,26.19
2023-07-19T09:25:02.656Z,26.35
2023-07-19T09:27:35.046Z,26.53
2023-07-19T09:30:12.674Z,26.72
2023-07-19T09:32:45.247Z,26.88
2023-07-19T09:35:17.296Z,27.03
2023-07-19T09:37:49.470Z,27.12
2023-07-19T09:40:22.045Z,27.18
2023-07-19T09:42:54.072Z,27.22
2023-07-19T09:45:30.085Z,27.29
2023-07-19T09:48:03.431Z,27.29
2023-07-19T09:50:36.227Z,27.24
2023-07-19T09:53:08.570Z,27.18
2023-07-19T09:55:41.200Z,27.12
2023-07-19T09:58:16.614Z,26.90
2023-07-19T10:00:49.204Z,26.72
2023-07-19T10:03:23.607Z,26.66
2023-07-19T10:05:59.953Z,26.68
2023-07-19T10:08:32.387Z,26.77
2023-07-19T10:11:05.017Z,26.89
2023-07-19T10:14:06.615Z,27.07
2023-07-19T10:16:40.958Z,27.34
2023-07-19T10:19:13.757Z,27.48
2023-07-19T10:22:04.755Z,27.53
2023-07-19T10:24:38.026Z,27.67
2023-07-19T10:27:11.613Z,27.75
2023-07-19T10:29:45.204Z,27.78
2023-07-19T10:32:17.115Z,27.66
2023-07-19T10:34:51.124Z,27.60
2023-07-19T10:37:23.679Z,27.60
2023-07-19T10:39:55.583Z,27.58
2023-07-19T10:42:28.014Z,27.61
2023-07-19T10:45:02.396Z,27.68
2023-07-19T10:47:34.645Z,27.71
2023-07-19T10:50:08.568Z,27.82
2023-07-19T10:52:40.853Z,28.02
2023-07-19T10:55:38.365Z,28.18
2023-07-19T10:58:08.207Z,28.36
2023-07-19T11:00:40.460Z,28.42
2023-07-19T11:03:16.165Z,28.72
2023-07-19T11:05:51.308Z,29.07
2023-07-19T11:08:27.343Z,29.08
2023-07-19T11:11:00.428Z,28.84
2023-07-19T11:13:32.853Z,28.67
2023-07-19T11:16:05.048Z,28.58
2023-07-19T11:18:41.653Z,28.57
2023-07-19T11:21:13.803Z,28.48
2023-07-19T11:23:46.757Z,28.42
2023-07-19T11:26:21.233Z,28.47
2023-07-19T11:28:55.447Z,28.57
2023-07-19T11:31:35.370Z,28.65
2023-07-19T11:34:10.685Z,28.70
2023-07-19T11:36:45.865Z,28.75
2023-07-19T11:39:18.621Z,28.70
2023-07-19T11:41:50.892Z,28.40
2023-07-19T11:44:25.187Z,28.13
2023-07-19T11:46:59.343Z,28.09
2023-07-19T11:49:31.726Z,28.13
2023-07-19T11:52:03.708Z,28.17
2023-07-19T11:54:35.875Z,28.16
2023-07-19T11:57:09.103Z,28.12
2023-07-19T11:59:39.679Z,27.95
2023-07-19T12:02:11.933Z,27.74
2023-07-19T12:04:43.791Z,27.58
2023-07-19T12:07:15.613Z,27.46
2023-07-19T12:09:47.604Z,27.43
2023-07-19T12:12:19.871Z,27.44
2023-07-19T12:14:52.037Z,27.33
2023-07-19T12:17:24.463Z,27.23
2023-07-19T12:19:57.692Z,27.21
2023-07-19T12:22:30.041Z,27.25
2023-07-19T12:25:02.061Z,27.47
2023-07-19T12:27:34.475Z,27.76
2023-07-19T12:30:11.559Z,27.98
2023-07-19T12:32:43.773Z,27.99
2023-07-19T12:35:15.795Z,27.99
2023-07-19T12:37:48.504Z,27.94
2023-07-19T12:40:20.599Z,27.92
2023-07-19T12:42:52.633Z,27.96
2023-07-19T12:45:24.757Z,27.98
2023-07-19T12:47:56.712Z,28.11
2023-07-19T12:50:29.613Z,28.30
2023-07-19T12:53:01.619Z,28.25
2023-07-19T12:55:33.665Z,28.15
2023-07-19T12:58:05.655Z,28.19
2023-07-19T13:00:38.248Z,28.44
2023-07-19T13:03:10.808Z,28.72
2023-07-19T13:05:43.678Z,28.82
2023-07-19T13:08:15.638Z,28.88
2023-07-19T13:10:47.832Z,29.03
2023-07-19T13:13:19.930Z,29.11
2023-07-19T13:15:51.932Z,29.00
2023-07-19T13:18:24.045Z,28.89
2023-07-19T13:20:56.014Z,28.93
2023-07-19T13:23:28.408Z,29.16
2023-07-19T13:26:01.679Z,29.67
2023-07-19T13:28:32.038Z,30.16
2023-07-19T13:31:04.318Z,30.12
2023-07-19T13:33:36.275Z,29.92
2023-07-19T13:38:43.166Z,30.20
2023-07-19T13:41:15.100Z,30.73
2023-07-19T13:43:47.203Z,31.27
2023-07-19T13:46:19.789Z,31.78
2023-07-19T13:48:52.042Z,32.12
2023-07-19T13:51:23.952Z,32.19
2023-07-19T13:53:55.757Z,32.17
2023-07-19T13:56:27.821Z,32.05
2023-07-19T13:58:59.881Z,31.74
2023-07-19T14:01:32.148Z,31.10
2023-07-19T14:04:04.344Z,30.48
2023-07-19T14:09:11.185Z,29.75
2023-07-19T14:11:45.139Z,29.76
2023-07-19T14:14:17.946Z,29.83
2023-07-19T14:16:52.593Z,30.02
2023-07-19T14:19:24.963Z,30.45
2023-07-19T14:21:57.181Z,30.91
2023-07-19T14:24:29.267Z,31.00
2023-07-19T14:27:01.277Z,30.82
2023-07-19T14:29:33.343Z,30.80
2023-07-19T14:32:05.783Z,31.09
2023-07-19T14:34:40.076Z,31.23
2023-07-19T14:37:18.504Z,31.25
2023-07-19T14:39:50.505Z,31.37
2023-07-19T14:42:22.345Z,31.18
2023-07-19T14:44:54.450Z,30.91
2023-07-19T14:47:26.620Z,30.87
2023-07-19T14:50:00.132Z,30.83
2023-07-19T14:52:32.062Z,30.92
2023-07-19T14:55:05.378Z,30.86
2023-07-19T14:57:37.331Z,31.08
2023-07-19T15:00:14.388Z,31.50
2023-07-19T15:02:59.255Z,31.47
2023-07-19T15:05:32.329Z,31.45
2023-07-19T15:08:04.981Z,31.44
2023-07-19T15:10:36.948Z,31.38
2023-07-19T15:13:11.448Z,31.25
2023-07-19T15:15:46.003Z,31.01
2023-07-19T15:18:19.135Z,30.80
2023-07-19T15:20:49.633Z,30.76
2023-07-19T15:23:23.290Z,30.66
2023-07-19T15:25:55.626Z,30.45
2023-07-19T15:28:30.126Z,30.20
2023-07-19T15:31:05.160Z,30.14
2023-07-19T15:33:37.336Z,30.16
2023-07-19T15:36:09.388Z,30.15
2023-07-19T15:38:43.388Z,30.00
2023-07-19T15:41:15.937Z,29.87
2023-07-19T15:43:48.414Z,29.80
2023-07-19T15:46:20.673Z,29.73
2023-07-19T15:48:52.917Z,29.65
2023-07-19T15:51:24.875Z,29.60
2023-07-19T15:53:56.750Z,29.60
2023-07-19T15:56:28.692Z,29.71
2023-07-19T15:59:00.552Z,29.83
2023-07-19T16:01:32.752Z,29.91
2023-07-19T16:04:05.015Z,29.80
2023-07-19T16:06:37.392Z,29.70
2023-07-19T16:09:09.619Z,29.61
2023-07-19T16:11:41.477Z,29.34
2023-07-19T16:14:13.650Z,29.02
2023-07-19T16:16:45.529Z,28.88
2023-07-19T16:19:18.543Z,28.74
2023-07-19T16:21:50.453Z,28.57
2023-07-19T16:24:22.382Z,28.38
2023-07-19T16:26:54.552Z,28.13
2023-07-19T16:29:26.583Z,28.00
2023-07-19T16:31:58.585Z,27.98
2023-07-19T16:34:30.571Z,28.03
2023-07-19T16:37:04.643Z,27.95
2023-07-19T16:39:38.814Z,27.83
2023-07-19T16:42:11.130Z,27.68
2023-07-19T16:44:43.271Z,27.54
2023-07-19T16:47:15.270Z,27.47
2023-07-19T16:49:47.225Z,27.32
2023-07-19T16:52:19.051Z,27.16
2023-07-19T16:54:50.909Z,27.06
2023-07-19T16:57:22.896Z,26.94
2023-07-19T17:00:10.355Z,26.79
2023-07-19T17:02:46.716Z,26.62
2023-07-19T17:05:19.324Z,26.52
2023-07-19T17:07:51.475Z,26.44
2023-07-19T17:10:23.570Z,26.36
2023-07-19T17:12:55.428Z,26.30
2023-07-19T17:15:27.316Z,26.25
2023-07-19T17:18:00.833Z,26.20
2023-07-19T17:20:34.851Z,26.17
2023-07-19T17:23:07.353Z,26.14
2023-07-19T17:25:39.356Z,26.11
2023-07-19T17:28:11.326Z,26.06
2023-07-19T17:30:44.468Z,26.03
2023-07-19T17:33:16.291Z,25.95
2023-07-19T17:35:48.685Z,25.86
2023-07-19T17:38:20.537Z,25.79
2023-07-19T17:40:52.493Z,25.75
2023-07-19T17:43:24.784Z,25.71
2023-07-19T17:45:57.397Z,25.68
2023-07-19T17:48:29.417Z,25.66
2023-07-19T17:51:01.602Z,25.64
2023-07-19T17:53:33.649Z,25.61
2023-07-19T17:56:05.786Z,25.52
2023-07-19T17:58:39.024Z,25.40
2023-07-19T18:01:11.246Z,25.30
2023-07-19T18:03:43.178Z,25.21
2023-07-19T18:06:15.220Z,25.11
2023-07-19T18:08:47.560Z,25.05
2023-07-19T18:11:20.194Z,24.99
2023-07-19T18:13:53.324Z,24.94
2023-07-19T18:16:25.343Z,24.87
2023-07-19T18:18:57.185Z,24.75
2023-07-19T18:21:29.423Z,24.60
2023-07-19T18:24:01.347Z,24.51
2023-07-19T18:26:33.525Z,24.41
2023-07-19T18:29:05.459Z,24.30
2023-07-19T18:31:37.468Z,24.19
2023-07-19T18:34:09.306Z,24.08
2023-07-19T18:36:41.325Z,23.93
2023-07-19T18:39:13.488Z,23.78
2023-07-19T18:41:45.620Z,23.62
2023-07-19T18:44:17.570Z,23.43
2023-07-19T18:46:50.702Z,23.25
2023-07-19T18:49:22.894Z,23.12
2023-07-19T18:51:54.970Z,23.00
2023-07-19T18:54:28.833Z,22.91
2023-07-19T18:57:02.972Z,22.82
2023-07-19T18:59:36.316Z,22.72
2023-07-19T19:02:09.497Z,22.61
2023-07-19T19:04:41.611Z,22.55
2023-07-19T19:07:13.652Z,22.45
2023-07-19T19:09:45.667Z,22.33
2023-07-19T19:12:17.929Z,22.23
2023-07-19T19:14:50.105Z,22.17
2023-07-19T19:17:22.010Z,22.09
2023-07-19T19:19:53.851Z,21.98
2023-07-19T19:22:26.045Z,21.90
2023-07-19T19:24:58.317Z,21.81
2023-07-19T19:27:30.364Z,21.71
2023-07-19T19:30:02.437Z,21.65
2023-07-19T19:32:34.684Z,21.58
2023-07-19T19:35:07.341Z,21.49
2023-07-19T19:37:39.504Z,21.41
2023-07-19T19:40:13.047Z,21.31
2023-07-19T19:42:46.094Z,21.22
2023-07-19T19:45:18.021Z,21.16
2023-07-19T19:47:50.650Z,21.09
2023-07-19T19:50:24.237Z,20.99
2023-07-19T19:53:09.305Z,20.90
2023-07-19T19:58:18.288Z,20.76
2023-07-19T20:00:50.141Z,20.72
2023-07-19T20:05:56.928Z,20.67
2023-07-19T20:08:29.163Z,20.61
2023-07-19T20:11:01.287Z,20.53
2023-07-19T20:13:33.310Z,20.43
2023-07-19T20:16:05.358Z,20.34
2023-07-19T20:21:12.300Z,20.21
2023-07-19T20:23:44.560Z,20.15
2023-07-19T20:26:17.407Z,20.11
2023-07-19T20:29:26.270Z,20.07
2023-07-19T20:42:12.873Z,19.87
2023-07-19T20:44:44.982Z,19.85
2023-07-19T20:47:18.567Z,19.81
2023-07-19T20:49:52.343Z,19.78
2023-07-19T20:52:24.584Z,19.74
2023-07-19T20:54:56.668Z,19.71
2023-07-19T20:57:28.652Z,19.69
2023-07-19T21:00:00.627Z,19.65
2023-07-19T21:02:32.558Z,19.62
2023-07-19T21:05:05.097Z,19.56
2023-07-19T21:07:37.389Z,19.52
2023-07-19T21:10:10.893Z,19.50
2023-07-19T21:12:43.055Z,19.49
2023-07-19T21:15:15.658Z,19.45
2023-07-19T21:17:47.914Z,19.43
2023-07-19T21:20:20.055Z,19.40
2023-07-19T21:22:52.270Z,19.38
2023-07-19T21:25:24.397Z,19.34
2023-07-19T21:27:56.297Z,19.31
2023-07-19T21:30:28.238Z,19.26
2023-07-19T21:33:00.178Z,19.20
2023-07-19T21:35:32.117Z,19.16
2023-07-19T21:38:05.263Z,19.13
2023-07-19T21:40:37.384Z,19.08
2023-07-19T21:43:09.517Z,19.04
2023-07-19T21:45:42.546Z,19.02
2023-07-19T21:48:14.739Z,19.02
2023-07-19T21:50:49.056Z,19.04
2023-07-19T21:53:23.967Z,19.02
2023-07-19T21:55:56.078Z,18.98
2023-07-19T21:58:28.587Z,18.96
2023-07-19T22:01:00.516Z,18.94
2023-07-19T22:03:32.665Z,18.92
2023-07-19T22:06:05.440Z,18.89
2023-07-19T22:08:37.271Z,18.86
2023-07-19T22:11:09.293Z,18.87
2023-07-19T22:13:43.211Z,18.89
2023-07-19T22:16:15.179Z,18.87
2023-07-19T22:18:47.623Z,18.85
2023-07-19T22:21:22.355Z,18.83
2023-07-19T22:23:54.704Z,18.83
2023-07-19T22:26:26.857Z,18.84
2023-07-19T22:29:03.944Z,18.85
2023-07-19T22:31:36.862Z,18.83
2023-07-19T22:34:08.806Z,18.81
2023-07-19T22:36:40.661Z,18.78
2023-07-19T22:39:12.626Z,18.77
2023-07-19T22:41:44.596Z,18.73
2023-07-19T22:44:16.431Z,18.70
2023-07-19T22:46:48.325Z,18.66
2023-07-19T22:49:21.322Z,18.63
2023-07-19T22:51:54.405Z,18.62
2023-07-19T22:54:26.360Z,18.59
2023-07-19T22:56:58.457Z,18.59
2023-07-19T22:59:30.259Z,18.58
2023-07-19T23:02:02.166Z,18.53
2023-07-19T23:04:33.976Z,18.50
2023-07-19T23:07:06.180Z,18.48
2023-07-19T23:09:38.055Z,18.46
2023-07-19T23:12:10.900Z,18.43
2023-07-19T23:14:42.957Z,18.42
2023-07-19T23:17:14.972Z,18.39
2023-07-19T23:19:48.150Z,18.38
2023-07-19T23:22:20.724Z,18.38
2023-07-19T23:24:52.901Z,18.35
2023-07-19T23:27:24.863Z,18.32
2023-07-19T23:29:56.794Z,18.31
2023-07-19T23:32:28.630Z,18.30
2023-07-19T23:35:00.642Z,18.30
2023-07-19T23:37:32.612Z,18.29
2023-07-19T23:40:06.759Z,18.28
2023-07-19T23:42:38.862Z,18.27
2023-07-19T23:45:12.280Z,18.28
2023-07-19T23:47:44.175Z,18.27
2023-07-19T23:50:16.014Z,18.26
2023-07-19T23:52:47.791Z,18.25
2023-07-19T23:55:19.732Z,18.24
2023-07-19T23:57:51.714Z,18.22
